createdAt,value
2023-02-13T00:00:53.453Z,31.23
2023-02-13T00:02:26.655Z,30.73
2023-02-13T00:03:59.660Z,28.38
2023-02-13T00:05:31.290Z,33.47
2023-02-13T00:07:02.906Z,33.67
2023-02-13T00:08:34.525Z,27.52
2023-02-13T00:10:07.294Z,38.70
2023-02-13T00:11:38.904Z,31.73
2023-02-13T00:13:10.539Z,30.80
2023-02-13T00:14:42.166Z,28.55
2023-02-13T00:16:13.892Z,29.80
2023-02-13T00:17:46.904Z,31.45
2023-02-13T00:19:18.563Z,32.40
2023-02-13T00:20:58.221Z,29.15
2023-02-13T00:22:30.119Z,30.15
2023-02-13T00:24:01.750Z,27.63
2023-02-13T00:25:33.380Z,32.08
2023-02-13T00:27:04.986Z,28.65
2023-02-13T00:28:36.841Z,30.38
2023-02-13T00:30:09.451Z,31.75
2023-02-13T00:31:41.182Z,37.47
2023-02-13T00:33:16.466Z,29.73
2023-02-13T00:36:40.497Z,28.52
2023-02-13T00:38:14.589Z,26.75
2023-02-13T00:39:46.241Z,33.78
2023-02-13T00:41:18.035Z,28.40
2023-02-13T00:42:49.653Z,33.13
2023-02-13T00:44:21.265Z,33.97
2023-02-13T00:45:52.980Z,32.72
2023-02-13T00:47:24.645Z,29.67
2023-02-13T00:48:57.643Z,29.70
2023-02-13T00:50:29.265Z,34.83
2023-02-13T00:52:00.931Z,30.60
2023-02-13T00:53:32.898Z,29.63
2023-02-13T00:55:05.076Z,40.80
2023-02-13T00:56:36.726Z,37.80
2023-02-13T00:58:08.375Z,40.50
2023-02-13T00:59:39.978Z,31.70
2023-02-13T01:01:11.667Z,32.13
2023-02-13T01:02:43.359Z,30.52
2023-02-13T01:04:16.422Z,29.42
2023-02-13T01:05:48.149Z,34.97
2023-02-13T01:07:19.768Z,32.30
2023-02-13T01:08:51.383Z,29.67
2023-02-13T01:10:23.035Z,43.80
2023-02-13T01:11:54.652Z,38.88
2023-02-13T01:13:26.303Z,37.92
2023-02-13T01:14:57.909Z,27.05
2023-02-13T01:16:29.535Z,30.75
2023-02-13T01:18:01.280Z,31.27
2023-02-13T01:19:34.432Z,31.90
2023-02-13T01:21:07.085Z,30.35
2023-02-13T01:22:39.025Z,29.55
2023-02-13T01:24:10.674Z,34.88
2023-02-13T01:25:42.381Z,35.88
2023-02-13T01:27:13.993Z,31.55
2023-02-13T01:28:45.757Z,31.33
2023-02-13T01:30:18.231Z,35.78
2023-02-13T01:31:50.000Z,30.38
2023-02-13T01:33:22.056Z,31.40
2023-02-13T01:34:55.001Z,34.15
2023-02-13T01:36:26.763Z,32.10
2023-02-13T01:37:58.385Z,31.15
2023-02-13T01:39:30.138Z,44.92
2023-02-13T01:41:01.810Z,49.15
2023-02-13T01:42:34.716Z,36.38
2023-02-13T01:44:39.372Z,34.40
2023-02-13T01:46:11.220Z,34.65
2023-02-13T01:47:45.316Z,40.10
2023-02-13T01:49:18.767Z,32.53
2023-02-13T01:50:52.811Z,33.17
2023-02-13T01:52:24.456Z,34.75
2023-02-13T01:53:58.682Z,33.83
2023-02-13T01:55:30.332Z,33.67
2023-02-13T01:57:04.224Z,34.08
2023-02-13T01:58:36.259Z,42.33
2023-02-13T02:00:09.463Z,34.80
2023-02-13T02:01:41.262Z,44.10
2023-02-13T02:03:14.225Z,35.25
2023-02-13T02:04:45.889Z,32.67
2023-02-13T02:06:21.242Z,33.78
2023-02-13T02:07:52.888Z,35.15
2023-02-13T02:09:26.170Z,30.58
2023-02-13T02:10:59.738Z,38.08
2023-02-13T02:12:36.409Z,29.98
2023-02-13T02:14:08.346Z,32.88
2023-02-13T02:15:40.662Z,44.70
2023-02-13T02:17:12.381Z,31.73
2023-02-13T02:18:46.619Z,31.00
2023-02-13T02:20:25.414Z,31.88
2023-02-13T02:22:34.137Z,32.70
2023-02-13T02:24:17.920Z,30.60
2023-02-13T02:26:12.780Z,28.90
2023-02-13T02:28:10.803Z,34.00
2023-02-13T02:30:03.414Z,33.13
2023-02-13T02:31:48.974Z,30.88
2023-02-13T02:33:24.605Z,30.17
2023-02-13T02:34:58.907Z,32.78
2023-02-13T02:36:36.647Z,38.05
2023-02-13T02:38:25.971Z,33.03
2023-02-13T02:40:05.624Z,40.55
2023-02-13T02:41:46.154Z,35.75
2023-02-13T02:43:26.137Z,30.92
2023-02-13T02:45:02.467Z,30.48
2023-02-13T02:46:36.281Z,34.38
2023-02-13T02:48:29.172Z,34.05
2023-02-13T02:50:09.064Z,30.80
2023-02-13T02:51:43.734Z,32.55
2023-02-13T02:53:19.106Z,31.95
2023-02-13T02:55:06.492Z,33.00
2023-02-13T02:56:40.162Z,32.28
2023-02-13T02:58:34.179Z,34.40
2023-02-13T03:00:25.615Z,32.78
2023-02-13T03:02:16.125Z,28.88
2023-02-13T03:04:07.853Z,29.73
2023-02-13T03:05:58.190Z,31.48
2023-02-13T03:07:29.800Z,34.08
2023-02-13T03:09:20.432Z,32.30
2023-02-13T03:11:10.537Z,31.20
2023-02-13T03:13:02.952Z,32.15
2023-02-13T03:14:34.917Z,34.92
2023-02-13T03:16:25.341Z,33.60
2023-02-13T03:18:15.595Z,35.15
2023-02-13T03:20:15.298Z,29.90
2023-02-13T03:22:07.170Z,29.38
2023-02-13T03:23:44.875Z,34.40
2023-02-13T03:25:34.258Z,34.25
2023-02-13T03:27:08.540Z,34.42
2023-02-13T03:29:00.573Z,35.70
2023-02-13T03:30:39.065Z,32.17
2023-02-13T03:32:12.363Z,30.50
2023-02-13T03:33:52.145Z,31.85
2023-02-13T03:35:48.107Z,30.13
2023-02-13T03:37:39.504Z,31.55
2023-02-13T03:39:12.590Z,38.25
2023-02-13T03:41:07.312Z,45.88
2023-02-13T03:42:41.059Z,33.28
2023-02-13T03:44:15.648Z,36.88
2023-02-13T03:45:53.059Z,34.90
2023-02-13T03:47:24.777Z,33.65
2023-02-13T03:49:15.077Z,32.97
2023-02-13T03:50:48.058Z,31.80
2023-02-13T03:52:22.751Z,28.83
2023-02-13T03:53:56.033Z,32.53
2023-02-13T03:55:47.406Z,49.33
2023-02-13T03:57:38.852Z,34.60
2023-02-13T03:59:17.313Z,33.25
2023-02-13T04:00:50.566Z,37.35
2023-02-13T04:02:24.617Z,36.25
2023-02-13T04:03:57.589Z,32.53
2023-02-13T04:05:30.129Z,36.20
2023-02-13T04:07:04.698Z,35.10
2023-02-13T04:08:36.363Z,35.65
2023-02-13T04:10:10.149Z,32.80
2023-02-13T04:11:43.562Z,41.88
2023-02-13T04:13:16.263Z,33.88
2023-02-13T04:14:49.858Z,33.40
2023-02-13T04:16:22.089Z,34.50
2023-02-13T04:17:55.671Z,33.90
2023-02-13T04:19:27.323Z,49.10
2023-02-13T04:21:01.979Z,41.80
2023-02-13T04:22:34.983Z,36.67
2023-02-13T04:24:07.482Z,38.17
2023-02-13T04:25:40.366Z,34.22
2023-02-13T04:27:12.809Z,33.95
2023-02-13T04:28:44.473Z,50.17
2023-02-13T04:30:16.229Z,36.38
2023-02-13T04:31:47.953Z,34.22
2023-02-13T04:33:19.633Z,32.72
2023-02-13T04:34:51.255Z,33.85
2023-02-13T04:36:22.889Z,33.20
2023-02-13T04:37:55.845Z,31.23
2023-02-13T04:39:27.491Z,34.97
2023-02-13T04:40:59.473Z,34.75
2023-02-13T04:42:31.333Z,34.72
2023-02-13T04:44:03.024Z,33.05
2023-02-13T04:45:34.689Z,31.13
2023-02-13T04:47:06.290Z,31.00
2023-02-13T04:48:38.867Z,31.63
2023-02-13T04:50:10.961Z,31.30
2023-02-13T04:51:43.507Z,32.72
2023-02-13T04:53:20.200Z,35.05
2023-02-13T04:54:56.864Z,33.22
2023-02-13T04:56:44.247Z,31.33
2023-02-13T04:58:24.441Z,32.67
2023-02-13T05:00:13.175Z,38.00
2023-02-13T05:02:14.283Z,45.58
2023-02-13T05:03:52.068Z,34.67
2023-02-13T05:05:49.925Z,35.55
2023-02-13T05:07:35.628Z,35.38
2023-02-13T05:09:15.125Z,50.65
2023-02-13T05:10:54.312Z,47.58
2023-02-13T05:12:51.833Z,43.15
2023-02-13T05:14:28.661Z,43.85
2023-02-13T05:16:02.510Z,46.30
2023-02-13T05:17:43.170Z,47.47
2023-02-13T05:19:23.891Z,43.10
2023-02-13T05:21:31.713Z,40.53
2023-02-13T05:24:06.807Z,38.05
2023-02-13T05:25:47.196Z,69.60
2023-02-13T05:27:22.578Z,51.22
2023-02-13T05:29:12.807Z,39.95
2023-02-13T05:30:44.453Z,50.33
2023-02-13T05:32:16.317Z,41.58
2023-02-13T05:33:48.024Z,56.72
2023-02-13T05:35:19.625Z,42.50
2023-02-13T05:36:52.581Z,45.63
2023-02-13T05:38:25.956Z,42.85
2023-02-13T05:39:57.578Z,36.38
2023-02-13T05:41:30.538Z,35.53
2023-02-13T05:43:02.192Z,38.08
2023-02-13T05:44:33.802Z,39.55
2023-02-13T05:46:05.974Z,37.55
2023-02-13T05:47:37.799Z,42.58
2023-02-13T05:49:09.870Z,44.25
2023-02-13T05:50:41.654Z,40.97
2023-02-13T05:52:13.233Z,40.53
2023-02-13T05:53:44.852Z,47.58
2023-02-13T05:55:16.560Z,41.80
2023-02-13T05:56:49.659Z,38.90
2023-02-13T05:58:21.371Z,37.47
2023-02-13T05:59:52.996Z,40.75
2023-02-13T06:01:24.819Z,47.38
2023-02-13T06:02:56.453Z,40.92
2023-02-13T06:04:28.137Z,40.80
2023-02-13T06:05:59.766Z,39.47
2023-02-13T06:07:31.362Z,40.95
2023-02-13T06:09:03.069Z,40.65
2023-02-13T06:10:34.939Z,43.80
2023-02-13T06:12:08.135Z,42.47
2023-02-13T06:13:42.758Z,45.25
2023-02-13T06:15:14.379Z,48.63
2023-02-13T06:16:46.015Z,44.28
2023-02-13T06:18:17.641Z,44.92
2023-02-13T06:19:49.325Z,42.55
2023-02-13T06:21:22.503Z,42.88
2023-02-13T06:22:54.300Z,44.10
2023-02-13T06:24:26.162Z,41.15
2023-02-13T06:26:02.049Z,43.35
2023-02-13T06:27:35.167Z,46.10
2023-02-13T06:29:07.010Z,41.03
2023-02-13T06:30:38.683Z,41.50
2023-02-13T06:32:10.367Z,38.72
2023-02-13T06:33:42.024Z,46.30
2023-02-13T06:35:13.787Z,43.05
2023-02-13T06:36:45.395Z,52.10
2023-02-13T06:38:19.217Z,65.80
2023-02-13T06:39:50.826Z,47.30
2023-02-13T06:41:22.486Z,43.85
2023-02-13T06:42:55.607Z,45.38
2023-02-13T06:44:27.242Z,45.30
2023-02-13T06:45:58.921Z,48.03
2023-02-13T06:47:30.536Z,47.70
2023-02-13T06:49:02.189Z,47.50
2023-02-13T06:50:34.899Z,51.00
2023-02-13T06:52:06.579Z,47.47
2023-02-13T06:53:38.250Z,50.38
2023-02-13T06:55:09.859Z,51.85
2023-02-13T06:56:41.656Z,46.42
2023-02-13T06:58:14.679Z,45.78
2023-02-13T06:59:46.316Z,50.00
2023-02-13T07:01:17.998Z,45.22
2023-02-13T07:02:49.694Z,45.28
2023-02-13T07:04:21.347Z,48.47
2023-02-13T07:05:53.027Z,47.25
2023-02-13T07:07:24.788Z,48.65
2023-02-13T07:08:56.516Z,47.03
2023-02-13T07:10:28.253Z,51.38
2023-02-13T07:12:02.913Z,47.72
2023-02-13T07:13:35.907Z,47.33
2023-02-13T07:15:08.440Z,51.58
2023-02-13T07:16:40.025Z,49.78
2023-02-13T07:18:11.679Z,53.15
2023-02-13T07:19:43.294Z,48.88
2023-02-13T07:21:14.907Z,48.53
2023-02-13T07:22:46.519Z,47.30
2023-02-13T07:24:18.114Z,51.47
2023-02-13T07:25:49.786Z,48.35
2023-02-13T07:27:21.423Z,68.57
2023-02-13T07:29:09.251Z,47.20
2023-02-13T07:30:42.417Z,89.40
2023-02-13T07:32:14.141Z,53.25
2023-02-13T07:33:48.488Z,48.35
2023-02-13T07:35:20.078Z,53.60
2023-02-13T07:36:52.152Z,50.00
2023-02-13T07:38:23.801Z,49.65
2023-02-13T07:39:55.417Z,52.30
2023-02-13T07:41:27.179Z,52.42
2023-02-13T07:43:00.395Z,51.10
2023-02-13T07:44:33.422Z,52.05
2023-02-13T07:46:05.781Z,61.47
2023-02-13T07:47:37.464Z,54.83
2023-02-13T07:49:09.164Z,56.35
2023-02-13T07:50:40.794Z,51.80
2023-02-13T07:52:12.439Z,55.30
2023-02-13T07:53:44.456Z,53.80
2023-02-13T07:55:16.356Z,51.10
2023-02-13T07:56:47.985Z,56.95
2023-02-13T07:58:19.584Z,56.00
2023-02-13T07:59:52.637Z,53.97
2023-02-13T08:01:24.438Z,53.92
2023-02-13T08:02:57.839Z,53.65
2023-02-13T08:04:29.528Z,54.05
2023-02-13T08:06:01.188Z,58.95
2023-02-13T08:07:32.770Z,75.18
2023-02-13T08:09:22.945Z,50.97
2023-02-13T08:11:13.122Z,56.28
2023-02-13T08:12:44.742Z,52.70
2023-02-13T08:14:16.593Z,51.75
2023-02-13T08:15:49.545Z,52.60
2023-02-13T08:17:21.235Z,52.67
2023-02-13T08:18:53.161Z,57.08
2023-02-13T08:20:25.202Z,50.38
2023-02-13T08:21:56.978Z,43.28
2023-02-13T08:23:28.853Z,67.78
2023-02-13T08:25:00.562Z,58.75
2023-02-13T08:26:32.184Z,59.10
2023-02-13T08:28:04.066Z,57.38
2023-02-13T08:29:35.732Z,53.58
2023-02-13T08:31:12.045Z,68.80
2023-02-13T08:32:53.849Z,53.03
2023-02-13T08:34:26.339Z,57.13
2023-02-13T08:35:58.447Z,64.35
2023-02-13T08:37:30.343Z,59.60
2023-02-13T08:39:02.028Z,59.28
2023-02-13T08:40:34.047Z,66.90
2023-02-13T08:42:05.764Z,61.08
2023-02-13T08:43:37.416Z,60.00
2023-02-13T08:45:11.618Z,59.45
2023-02-13T08:46:44.633Z,52.75
2023-02-13T08:48:16.242Z,63.25
2023-02-13T08:49:47.862Z,55.55
2023-02-13T08:51:19.612Z,57.63
2023-02-13T08:52:51.233Z,52.47
2023-02-13T08:54:22.863Z,59.80
2023-02-13T08:55:54.714Z,67.43
2023-02-13T08:57:26.545Z,61.40
2023-02-13T08:58:58.284Z,62.47
2023-02-13T09:00:29.914Z,55.60
2023-02-13T09:02:02.903Z,52.63
2023-02-13T09:03:35.126Z,55.47
2023-02-13T09:05:06.972Z,63.33
2023-02-13T09:06:38.590Z,62.65
2023-02-13T09:08:11.809Z,64.57
2023-02-13T09:09:43.381Z,65.03
2023-02-13T09:11:15.013Z,55.20
2023-02-13T09:12:52.328Z,62.63
2023-02-13T09:14:25.071Z,53.40
2023-02-13T09:15:59.217Z,60.47
2023-02-13T09:17:32.501Z,48.53
2023-02-13T09:19:04.378Z,60.72
2023-02-13T09:20:36.371Z,56.42
2023-02-13T09:22:08.037Z,57.10
2023-02-13T09:23:40.346Z,56.20
2023-02-13T09:25:11.950Z,55.72
2023-02-13T09:26:43.657Z,56.28
2023-02-13T09:28:15.310Z,63.45
2023-02-13T09:29:47.272Z,61.15
2023-02-13T09:31:19.916Z,88.85
2023-02-13T09:32:53.397Z,56.00
2023-02-13T09:34:25.065Z,61.55
2023-02-13T09:35:56.987Z,58.90
2023-02-13T09:37:28.844Z,67.25
2023-02-13T09:39:00.823Z,64.82
2023-02-13T09:40:39.543Z,56.22
2023-02-13T09:42:16.797Z,61.35
2023-02-13T09:43:49.695Z,62.28
2023-02-13T09:45:21.852Z,61.92
2023-02-13T09:46:53.550Z,63.63
2023-02-13T09:48:29.030Z,60.03
2023-02-13T09:50:02.569Z,74.75
2023-02-13T09:51:34.617Z,65.88
2023-02-13T09:53:06.319Z,68.88
2023-02-13T09:54:38.176Z,62.58
2023-02-13T09:56:11.324Z,70.15
2023-02-13T09:57:44.169Z,67.28
2023-02-13T09:59:24.028Z,63.72
2023-02-13T10:00:57.242Z,95.13
2023-02-13T10:02:40.497Z,55.85
2023-02-13T10:04:25.491Z,71.47
2023-02-13T10:06:02.127Z,65.55
2023-02-13T10:07:37.167Z,62.03
2023-02-13T10:09:11.925Z,63.30
2023-02-13T10:10:50.560Z,58.03
2023-02-13T10:12:46.997Z,55.60
2023-02-13T10:14:19.386Z,56.53
2023-02-13T10:15:53.795Z,72.95
2023-02-13T10:17:28.521Z,71.28
2023-02-13T10:19:02.889Z,82.97
2023-02-13T10:20:37.516Z,62.60
2023-02-13T10:22:11.774Z,64.07
2023-02-13T10:23:44.690Z,68.93
2023-02-13T10:25:17.427Z,67.03
2023-02-13T10:26:49.087Z,73.43
2023-02-13T10:28:28.700Z,80.50
2023-02-13T10:30:12.648Z,59.90
2023-02-13T10:31:44.889Z,57.70
2023-02-13T10:33:21.290Z,57.10
2023-02-13T10:34:52.968Z,57.92
2023-02-13T10:36:27.200Z,56.08
2023-02-13T10:37:59.878Z,59.95
2023-02-13T10:39:31.626Z,64.03
2023-02-13T10:41:17.259Z,56.38
2023-02-13T10:42:53.242Z,62.72
2023-02-13T10:44:35.172Z,57.03
2023-02-13T10:46:14.757Z,59.85
2023-02-13T10:47:54.281Z,57.40
2023-02-13T10:49:49.436Z,62.08
2023-02-13T10:51:26.891Z,73.32
2023-02-13T10:53:06.032Z,57.42
2023-02-13T10:54:52.655Z,63.22
2023-02-13T10:56:26.701Z,70.78
2023-02-13T10:58:09.107Z,67.22
2023-02-13T10:59:50.555Z,63.28
2023-02-13T11:01:24.565Z,64.20
2023-02-13T11:02:56.399Z,63.63
2023-02-13T11:04:31.410Z,61.63
2023-02-13T11:06:06.662Z,61.67
2023-02-13T11:07:42.500Z,55.35
2023-02-13T11:09:14.149Z,53.10
2023-02-13T11:10:45.790Z,53.85
2023-02-13T11:12:24.807Z,58.53
2023-02-13T11:14:08.317Z,60.17
2023-02-13T11:15:40.075Z,61.35
2023-02-13T11:17:15.216Z,61.28
2023-02-13T11:18:51.344Z,61.33
2023-02-13T11:20:28.544Z,59.03
2023-02-13T11:22:03.327Z,57.15
2023-02-13T11:23:41.495Z,58.70
2023-02-13T11:25:26.757Z,52.75
2023-02-13T11:27:02.721Z,58.33
2023-02-13T11:28:36.317Z,66.05
2023-02-13T11:30:29.338Z,52.17
2023-02-13T11:32:17.282Z,61.80
2023-02-13T11:33:48.971Z,54.58
2023-02-13T11:35:28.662Z,59.17
2023-02-13T11:37:24.907Z,59.90
2023-02-13T11:39:02.292Z,52.90
2023-02-13T11:40:34.028Z,56.67
2023-02-13T11:42:06.411Z,52.05
2023-02-13T11:43:43.619Z,45.50
2023-02-13T11:45:21.094Z,55.05
2023-02-13T11:46:53.678Z,49.28
2023-02-13T11:48:25.462Z,56.17
2023-02-13T11:49:57.115Z,53.63
2023-02-13T11:51:36.597Z,53.33
2023-02-13T11:53:09.303Z,54.83
2023-02-13T11:54:42.827Z,56.55
2023-02-13T11:56:17.787Z,50.47
2023-02-13T11:57:56.940Z,51.45
2023-02-13T11:59:31.217Z,56.45
2023-02-13T12:01:27.034Z,55.80
2023-02-13T12:02:58.809Z,50.53
2023-02-13T12:04:30.780Z,56.80
2023-02-13T12:06:04.786Z,52.70
2023-02-13T12:07:39.592Z,56.58
2023-02-13T12:09:12.752Z,53.80
2023-02-13T12:10:46.293Z,59.00
2023-02-13T12:12:20.080Z,54.25
2023-02-13T12:13:52.081Z,50.30
2023-02-13T12:15:25.569Z,50.85
2023-02-13T12:16:59.677Z,56.08
2023-02-13T12:18:35.019Z,56.40
2023-02-13T12:20:12.754Z,55.83
2023-02-13T12:22:08.610Z,56.60
2023-02-13T12:23:42.400Z,48.28
2023-02-13T12:25:51.537Z,48.90
2023-02-13T12:27:28.065Z,47.50
2023-02-13T12:29:19.115Z,58.58
2023-02-13T12:31:15.931Z,50.90
2023-02-13T12:32:51.168Z,52.92
2023-02-13T12:34:30.574Z,51.78
2023-02-13T12:36:02.735Z,51.42
2023-02-13T12:37:47.233Z,55.58
2023-02-13T12:39:23.200Z,61.58
2023-02-13T12:41:14.178Z,55.10
2023-02-13T12:42:50.518Z,54.65
2023-02-13T12:44:31.937Z,57.00
2023-02-13T12:46:05.666Z,51.88
2023-02-13T12:47:39.008Z,58.33
2023-02-13T12:49:20.276Z,53.42
2023-02-13T12:50:57.215Z,53.42
2023-02-13T12:52:36.462Z,53.88
2023-02-13T12:54:15.880Z,54.60
2023-02-13T12:55:57.874Z,52.47
2023-02-13T12:57:37.489Z,55.00
2023-02-13T12:59:13.330Z,53.28
2023-02-13T13:00:49.653Z,56.75
2023-02-13T13:02:47.956Z,65.78
2023-02-13T13:04:21.848Z,61.28
2023-02-13T13:06:11.755Z,56.15
2023-02-13T13:07:52.495Z,50.67
2023-02-13T13:09:39.634Z,53.50
2023-02-13T13:11:18.929Z,47.92
2023-02-13T13:12:53.164Z,53.85
2023-02-13T13:14:29.533Z,55.40
2023-02-13T13:16:02.925Z,51.03
2023-02-13T13:17:42.810Z,51.58
2023-02-13T13:19:20.498Z,51.67
2023-02-13T13:21:11.882Z,58.35
2023-02-13T13:22:45.213Z,57.50
2023-02-13T13:24:24.118Z,59.22
2023-02-13T13:26:00.787Z,56.55
2023-02-13T13:27:33.853Z,57.20
2023-02-13T13:29:06.791Z,50.45
2023-02-13T13:30:39.809Z,55.25
2023-02-13T13:32:13.336Z,47.05
2023-02-13T13:33:46.069Z,49.17
2023-02-13T13:35:18.475Z,66.30
2023-02-13T13:36:51.476Z,55.33
2023-02-13T13:38:25.485Z,50.83
2023-02-13T13:39:59.563Z,52.00
2023-02-13T13:41:35.542Z,55.70
2023-02-13T13:43:14.102Z,54.83
2023-02-13T13:44:56.367Z,53.85
2023-02-13T13:46:34.487Z,51.92
2023-02-13T13:48:41.344Z,53.20
2023-02-13T13:50:18.603Z,48.55
2023-02-13T13:51:50.210Z,51.05
2023-02-13T13:53:23.545Z,49.92
2023-02-13T13:54:55.723Z,48.53
2023-02-13T13:56:30.524Z,51.85
2023-02-13T13:58:02.326Z,49.58
2023-02-13T14:00:23.079Z,50.53
2023-02-13T14:02:16.963Z,55.13
2023-02-13T14:03:48.979Z,51.50
2023-02-13T14:05:27.967Z,54.47
2023-02-13T14:07:16.020Z,51.33
2023-02-13T14:09:09.775Z,51.80
2023-02-13T14:11:24.973Z,52.15
2023-02-13T14:13:00.730Z,48.63
2023-02-13T14:14:49.895Z,48.28
2023-02-13T14:16:37.109Z,52.42
2023-02-13T14:18:19.224Z,53.28
2023-02-13T14:19:51.988Z,53.78
2023-02-13T14:21:24.041Z,53.67
2023-02-13T14:22:55.683Z,50.75
2023-02-13T14:24:34.515Z,52.75
2023-02-13T14:26:17.950Z,54.00
2023-02-13T14:27:56.107Z,50.88
2023-02-13T14:29:32.806Z,55.45
2023-02-13T14:31:05.996Z,48.65
2023-02-13T14:32:38.111Z,50.40
2023-02-13T14:34:18.341Z,55.97
2023-02-13T14:36:09.954Z,48.92
2023-02-13T14:37:50.185Z,53.40
2023-02-13T14:39:25.733Z,52.25
2023-02-13T14:40:58.002Z,54.60
2023-02-13T14:42:29.897Z,50.78
2023-02-13T14:44:01.690Z,50.22
2023-02-13T14:45:44.662Z,49.47
2023-02-13T14:47:24.690Z,52.08
2023-02-13T14:49:05.261Z,53.35
2023-02-13T14:50:48.658Z,53.65
2023-02-13T14:52:26.454Z,56.72
2023-02-13T14:54:03.953Z,50.20
2023-02-13T14:55:38.218Z,53.20
2023-02-13T14:57:14.397Z,53.63
2023-02-13T14:58:48.944Z,56.05
2023-02-13T15:00:28.351Z,56.03
2023-02-13T15:02:04.681Z,49.30
2023-02-13T15:03:38.641Z,52.95
2023-02-13T15:05:13.020Z,50.17
2023-02-13T15:06:46.076Z,56.83
2023-02-13T15:08:18.818Z,53.92
2023-02-13T15:09:54.555Z,54.63
2023-02-13T15:11:36.805Z,54.75
2023-02-13T15:13:14.192Z,49.75
2023-02-13T15:14:45.835Z,47.17
2023-02-13T15:16:19.175Z,51.17
2023-02-13T15:17:50.952Z,55.38
2023-02-13T15:19:22.965Z,54.88
2023-02-13T15:20:55.960Z,52.05
2023-02-13T15:22:32.678Z,50.58
2023-02-13T15:24:04.592Z,56.63
2023-02-13T15:25:37.333Z,55.28
2023-02-13T15:27:20.268Z,54.10
2023-02-13T15:29:01.870Z,53.22
2023-02-13T15:30:36.133Z,52.67
2023-02-13T15:32:19.809Z,52.95
2023-02-13T15:33:51.537Z,47.47
2023-02-13T15:35:24.186Z,49.90
2023-02-13T15:36:55.911Z,58.47
2023-02-13T15:38:30.777Z,49.20
2023-02-13T15:40:24.427Z,54.25
2023-02-13T15:41:56.919Z,53.00
2023-02-13T15:43:34.844Z,52.88
2023-02-13T15:45:15.749Z,50.47
2023-02-13T15:46:54.244Z,52.47
2023-02-13T15:48:25.986Z,52.22
2023-02-13T15:49:57.636Z,51.22
2023-02-13T15:51:34.059Z,49.80
2023-02-13T15:53:06.093Z,51.83
2023-02-13T15:54:47.782Z,51.42
2023-02-13T15:56:19.450Z,46.25
2023-02-13T15:57:51.790Z,50.00
2023-02-13T15:59:23.516Z,49.70
2023-02-13T16:00:55.510Z,48.05
2023-02-13T16:02:30.223Z,46.30
2023-02-13T16:04:03.667Z,47.90
2023-02-13T16:05:40.667Z,47.65
2023-02-13T16:07:12.890Z,50.13
2023-02-13T16:08:45.314Z,46.55
2023-02-13T16:10:24.342Z,50.72
2023-02-13T16:12:03.596Z,51.33
2023-02-13T16:13:35.218Z,49.40
2023-02-13T16:15:08.611Z,47.67
2023-02-13T16:16:48.385Z,52.78
2023-02-13T16:18:20.186Z,46.67
2023-02-13T16:19:56.885Z,45.95
2023-02-13T16:21:40.685Z,44.08
2023-02-13T16:23:19.545Z,52.80
2023-02-13T16:24:52.283Z,52.75
2023-02-13T16:26:25.304Z,47.47
2023-02-13T16:27:58.389Z,48.38
2023-02-13T16:29:30.163Z,48.50
2023-02-13T16:31:02.704Z,45.25
2023-02-13T16:32:38.252Z,47.80
2023-02-13T16:34:24.165Z,49.72
2023-02-13T16:35:56.642Z,49.22
2023-02-13T16:37:30.204Z,47.42
2023-02-13T16:39:11.100Z,49.83
2023-02-13T16:40:43.657Z,48.25
2023-02-13T16:42:19.240Z,46.67
2023-02-13T16:43:53.192Z,50.72
2023-02-13T16:45:25.041Z,49.17
2023-02-13T16:46:57.715Z,48.05
2023-02-13T16:48:29.358Z,48.05
2023-02-13T16:50:02.319Z,50.60
2023-02-13T16:51:36.656Z,47.20
2023-02-13T16:53:08.345Z,51.33
2023-02-13T16:54:48.008Z,45.30
2023-02-13T16:56:19.643Z,49.17
2023-02-13T16:57:52.684Z,50.63
2023-02-13T16:59:29.254Z,44.45
2023-02-13T17:01:03.543Z,43.65
2023-02-13T17:02:35.446Z,44.05
2023-02-13T17:04:13.498Z,46.78
2023-02-13T17:05:45.418Z,42.65
2023-02-13T17:07:22.171Z,49.75
2023-02-13T17:08:53.974Z,43.05
2023-02-13T17:10:30.861Z,46.15
2023-02-13T17:12:02.524Z,49.20
2023-02-13T17:13:35.560Z,48.85
2023-02-13T17:15:12.436Z,49.70
2023-02-13T17:16:44.100Z,49.72
2023-02-13T17:18:15.784Z,52.25
2023-02-13T17:19:47.437Z,50.00
2023-02-13T17:21:19.039Z,47.60
2023-02-13T17:22:51.286Z,48.58
2023-02-13T17:24:22.946Z,48.97
2023-02-13T17:25:54.521Z,48.08
2023-02-13T17:27:26.274Z,46.40
2023-02-13T17:28:59.362Z,46.38
2023-02-13T17:30:32.041Z,46.60
2023-02-13T17:32:03.716Z,47.63
2023-02-13T17:33:35.495Z,45.78
2023-02-13T17:35:07.498Z,45.72
2023-02-13T17:36:39.333Z,45.83
2023-02-13T17:38:11.049Z,44.90
2023-02-13T17:39:42.674Z,45.90
2023-02-13T17:41:14.945Z,44.67
2023-02-13T17:42:47.367Z,47.00
2023-02-13T17:44:20.560Z,47.22
2023-02-13T17:45:52.876Z,45.10
2023-02-13T17:47:24.695Z,46.55
2023-02-13T17:48:56.346Z,45.00
2023-02-13T17:50:28.645Z,46.40
2023-02-13T17:52:01.941Z,44.92
2023-02-13T17:53:33.640Z,46.25
2023-02-13T17:55:06.075Z,46.83
2023-02-13T17:56:42.933Z,43.40
2023-02-13T17:58:14.620Z,44.67
2023-02-13T17:59:50.781Z,47.65
2023-02-13T18:01:25.290Z,45.30
2023-02-13T18:02:57.302Z,45.42
2023-02-13T18:04:31.601Z,44.15
2023-02-13T18:06:03.987Z,45.60
2023-02-13T18:07:35.637Z,44.05
2023-02-13T18:09:07.280Z,45.85
2023-02-13T18:10:39.517Z,45.08
2023-02-13T18:12:18.146Z,43.47
2023-02-13T18:13:49.836Z,45.30
2023-02-13T18:15:23.155Z,48.35
2023-02-13T18:16:55.896Z,47.28
2023-02-13T18:18:27.589Z,43.63
2023-02-13T18:19:59.276Z,42.30
2023-02-13T18:21:30.888Z,42.25
2023-02-13T18:23:02.774Z,43.45
2023-02-13T18:24:35.487Z,43.67
2023-02-13T18:26:08.201Z,39.53
2023-02-13T18:27:39.817Z,43.85
2023-02-13T18:29:11.526Z,48.15
2023-02-13T18:30:47.704Z,47.22
2023-02-13T18:32:19.423Z,46.88
2023-02-13T18:33:51.084Z,44.97
2023-02-13T18:35:22.976Z,44.83
2023-02-13T18:36:54.635Z,46.20
2023-02-13T18:38:26.445Z,48.58
2023-02-13T18:39:58.102Z,42.88
2023-02-13T18:41:37.989Z,48.25
2023-02-13T18:43:09.794Z,47.38
2023-02-13T18:44:44.178Z,49.95
2023-02-13T18:46:17.437Z,48.88
2023-02-13T18:47:49.140Z,48.15
2023-02-13T18:49:23.583Z,46.50
2023-02-13T18:50:55.259Z,50.15
2023-02-13T18:52:26.955Z,45.35
2023-02-13T18:54:00.229Z,48.47
2023-02-13T18:55:31.944Z,55.78
2023-02-13T18:57:03.745Z,45.38
2023-02-13T18:58:35.810Z,45.25
2023-02-13T19:00:08.697Z,44.58
2023-02-13T19:01:42.276Z,47.28
2023-02-13T19:03:13.976Z,50.97
2023-02-13T19:04:45.652Z,49.97
2023-02-13T19:06:18.312Z,46.42
2023-02-13T19:07:50.124Z,42.42
2023-02-13T19:09:33.339Z,40.50
2023-02-13T19:11:05.603Z,41.58
2023-02-13T19:12:37.566Z,41.80
2023-02-13T19:14:11.766Z,46.63
2023-02-13T19:15:43.430Z,43.67
2023-02-13T19:17:19.113Z,49.67
2023-02-13T19:19:05.148Z,48.35
2023-02-13T19:20:43.770Z,46.30
2023-02-13T19:22:16.235Z,49.75
2023-02-13T19:23:53.722Z,48.55
2023-02-13T19:25:26.108Z,47.30
2023-02-13T19:27:08.304Z,50.30
2023-02-13T19:28:43.473Z,54.13
2023-02-13T19:30:20.300Z,50.25
2023-02-13T19:31:52.327Z,49.28
2023-02-13T19:33:25.647Z,51.50
2023-02-13T19:34:57.820Z,51.78
2023-02-13T19:36:30.278Z,52.30
2023-02-13T19:38:02.164Z,51.75
2023-02-13T19:39:34.305Z,49.45
2023-02-13T19:41:06.405Z,50.15
2023-02-13T19:42:40.154Z,51.22
2023-02-13T19:44:12.233Z,55.50
2023-02-13T19:45:49.991Z,60.30
2023-02-13T19:47:22.648Z,60.10
2023-02-13T19:48:56.060Z,61.08
2023-02-13T19:50:28.060Z,62.22
2023-02-13T19:51:59.896Z,57.00
2023-02-13T19:53:31.970Z,50.83
2023-02-13T19:55:09.151Z,47.83
2023-02-13T19:56:41.024Z,44.25
2023-02-13T19:58:48.244Z,46.17
2023-02-13T20:00:54.383Z,44.50
2023-02-13T20:02:26.794Z,43.00
2023-02-13T20:04:01.278Z,42.17
2023-02-13T20:05:38.032Z,43.53
2023-02-13T20:07:12.251Z,39.47
2023-02-13T20:08:44.275Z,38.20
2023-02-13T20:10:16.038Z,37.45
2023-02-13T20:11:47.813Z,41.13
2023-02-13T20:13:19.584Z,38.60
2023-02-13T20:14:51.307Z,38.25
2023-02-13T20:16:24.478Z,39.72
2023-02-13T20:17:56.283Z,40.78
2023-02-13T20:19:40.793Z,39.78
2023-02-13T20:21:21.923Z,42.92
2023-02-13T20:23:06.634Z,39.83
2023-02-13T20:24:42.538Z,40.85
2023-02-13T20:26:14.768Z,52.78
2023-02-13T20:27:46.487Z,42.63
2023-02-13T20:29:18.219Z,42.80
2023-02-13T20:30:53.377Z,36.90
2023-02-13T20:32:25.615Z,36.17
2023-02-13T20:33:58.034Z,38.40
2023-02-13T20:35:31.157Z,41.00